Carmel — 9HKK8 — position and weather

sailwx.info

Track history (hours):
 
Tides and Currents Weather Stations Pressure Air Temp Water Temp Dewpoint Dewpoint Depression Visibility Wind Speed Wind Dir Waves Ship Positions

Carmel

Last reported at 2017-Oct-19 18:04 UTC. Time now 2017-Nov-18 10:18 UTC.
Position N 35°38' E 031°54'.
Warning: this ship's position is 29 days out of date.

Length 244 m; draft 12.5 m.

Type: Ship (hazmat cat A). MMSI: 249583000.

Date/timePositionNaut miles runAvg speedWind from/ knotsBaromVisibWave heightAir tempDewpointWater temp
2017-Oct-19 18:04N 35°38' E 031°54'112.9
2017-Oct-19 18:00N 35°37' E 031°54'2112.9
2017-Oct-19 16:23N 35°35' E 031°28'512.6
2017-Oct-19 15:58N 35°35' E 031°22'612.5
2017-Oct-19 15:30N 35°34' E 031°15'612.5
2017-Oct-19 15:00N 35°33' E 031°07'612.4
2017-Oct-19 14:30N 35°33' E 030°59'612.5
2017-Oct-19 14:00N 35°32' E 030°52'612.5
2017-Oct-19 13:30N 35°31' E 030°44'612.3
2017-Oct-19 13:00N 35°31' E 030°37'1612.2
2017-Oct-19 11:44N 35°29' E 030°17'58412.6
2017-Oct-17 13:20N 34°45' E 018°26'412.5
2017-Oct-17 12:59N 34°44' E 018°21'612.4
2017-Oct-17 12:29N 34°43' E 018°13'612.1
2017-Oct-17 12:00N 34°41' E 018°06'  
2017-Oct-12 13:43N 44°29' E 013°42'415.5
2017-Oct-12 13:27N 44°32' E 013°39'715.5
2017-Oct-12 13:00N 44°38' E 013°33'815.4
2017-Oct-12 12:30N 44°44' E 013°27'815.5
2017-Oct-12 12:00N 44°51' E 013°21'815.4
2017-Oct-12 11:30N 44°57' E 013°15'815.6
2017-Oct-12 11:00N 45°03' E 013°08'815.3
2017-Oct-12 10:30N 45°10' E 013°03'815.4
2017-Oct-12 10:00N 45°17' E 013°00'714.0
2017-Oct-12 09:31N 45°24' E 013°04'815.5
2017-Oct-12 09:00N 45°29' E 013°12'714.5
2017-Oct-12 08:30N 45°34' E 013°20'713.4
2017-Oct-12 08:00N 45°36' E 013°29'612.2
2017-Oct-12 07:30N 45°38' E 013°37'2 5.0
2017-Oct-12 07:00N 45°38' E 013°41'1 1.7
2017-Oct-12 06:31N 45°38' E 013°42'1 1.6
2017-Oct-12 06:00N 45°37' E 013°42'3 6.3
2017-Oct-12 05:30N 45°37' E 013°46'0 0.8
2017-Oct-12 04:59N 45°37' E 013°47'0 0.0
2017-Oct-12 04:29N 45°37' E 013°47'0 0.0
2017-Oct-12 03:59N 45°37' E 013°47'0 0.0
2017-Oct-12 03:29N 45°37' E 013°47'0 0.0
2017-Oct-12 02:53N 45°37' E 013°47'0 0.0
2017-Oct-12 02:29N 45°37' E 013°47'0 0.0
2017-Oct-12 01:59N 45°37' E 013°47'0 0.0
2017-Oct-12 01:29N 45°37' E 013°47'0 0.0
2017-Oct-12 00:59N 45°37' E 013°47'0 0.0
2017-Oct-12 00:29N 45°37' E 013°47'0 0.0
2017-Oct-11 23:59N 45°37' E 013°47'0 0.0
2017-Oct-11 23:29N 45°37' E 013°47'0 0.0
2017-Oct-11 22:56N 45°37' E 013°47'0 0.0
2017-Oct-11 22:26N 45°37' E 013°47'0 0.0
2017-Oct-11 21:35N 45°37' E 013°47'0 0.0
2017-Oct-11 21:11N 45°37' E 013°47'0 0.0
2017-Oct-11 20:59N 45°37' E 013°47'0 0.0
2017-Oct-11 20:23N 45°37' E 013°47'0 0.0
2017-Oct-11 19:53N 45°37' E 013°47'0 0.0
2017-Oct-11 19:29N 45°37' E 013°47'0 0.0
2017-Oct-11 18:53N 45°37' E 013°47'0 0.0
2017-Oct-11 18:14N 45°37' E 013°47'0 0.0
2017-Oct-11 17:56N 45°37' E 013°47'0 0.0
2017-Oct-11 17:29N 45°37' E 013°47'0 0.0
2017-Oct-11 16:58N 45°37' E 013°47'0 0.0
2017-Oct-10 23:49N 45°37' E 013°47'0 0.0
2017-Oct-10 23:19N 45°37' E 013°47'0 0.0
2017-Oct-10 22:49N 45°37' E 013°47'0 0.0
2017-Oct-10 22:25N 45°37' E 013°47'0 0.0
2017-Oct-10 21:58N 45°37' E 013°47'0 0.0
2017-Oct-10 21:28N 45°37' E 013°47'0 0.0
2017-Oct-10 20:58N 45°37' E 013°47'0 0.0
2017-Oct-10 20:25N 45°37' E 013°47'0 0.0
2017-Oct-10 20:00N 45°37' E 013°47'0 0.7
2017-Oct-10 19:30N 45°37' E 013°46'3 5.7
2017-Oct-10 19:00N 45°37' E 013°42'1 1.7
2017-Oct-10 18:30N 45°38' E 013°41'0 0.1
2017-Oct-10 18:00N 45°38' E 013°41'0 0.1
2017-Oct-10 17:30N 45°38' E 013°41'0 0.0
2017-Oct-10 16:57N 45°38' E 013°41'0 0.0
2017-Oct-10 16:30N 45°38' E 013°41'0 0.0
2017-Oct-10 15:57N 45°38' E 013°41'0 0.1
2017-Oct-10 15:30N 45°38' E 013°41'0 0.0
2017-Oct-10 14:57N 45°38' E 013°41'0 0.0
2017-Oct-10 14:00N 45°38' E 013°41'0 0.0
2017-Oct-10 13:27N 45°38' E 013°41'0 0.0
2017-Oct-10 12:57N 45°38' E 013°41'0 0.1
2017-Oct-10 12:30N 45°38' E 013°41'0 0.0
2017-Oct-10 11:54N 45°38' E 013°41'0 0.0
2017-Oct-10 11:30N 45°38' E 013°41'0 0.1
2017-Oct-10 11:00N 45°38' E 013°41'0 0.2
2017-Oct-10 10:27N 45°38' E 013°41'0 0.2
2017-Oct-10 10:00N 45°38' E 013°41'0 0.1
2017-Oct-10 09:18N 45°38' E 013°41'0 0.1
2017-Oct-10 09:00N 45°38' E 013°41'0 0.0
2017-Oct-10 08:27N 45°38' E 013°41'0 0.0
2017-Oct-10 07:57N 45°38' E 013°41'0 0.0
2017-Oct-10 07:30N 45°38' E 013°41'0 0.0
2017-Oct-10 07:00N 45°38' E 013°41'0 0.0
2017-Oct-10 06:21N 45°38' E 013°41'0 0.0
2017-Oct-10 05:57N 45°38' E 013°41'0 0.0
2017-Oct-10 05:24N 45°38' E 013°41'0 0.0
2017-Oct-10 04:54N 45°38' E 013°41'0 0.0
2017-Oct-10 04:30N 45°38' E 013°41'0 0.0
2017-Oct-10 03:57N 45°38' E 013°41'0 0.0
2017-Oct-10 03:30N 45°38' E 013°41'0 0.0
2017-Oct-10 03:00N 45°38' E 013°41'0 0.0
2017-Oct-10 02:30N 45°38' E 013°41'0 0.0
2017-Oct-10 01:51N 45°38' E 013°41'0 0.0
2017-Oct-10 01:30N 45°38' E 013°41'0 0.1
2017-Oct-10 00:57N 45°38' E 013°41'0 0.0
2017-Oct-10 00:30N 45°38' E 013°41'0 0.0
2017-Oct-09 23:51N 45°38' E 013°41'0 0.0
2017-Oct-09 23:30N 45°38' E 013°41'0 0.0
2017-Oct-09 22:54N 45°38' E 013°41'0 0.0
2017-Oct-09 22:21N 45°38' E 013°41'0 0.0
2017-Oct-09 22:00N 45°38' E 013°41'0 0.0
2017-Oct-09 21:30N 45°38' E 013°41'0 0.0
2017-Oct-09 21:00N 45°38' E 013°41'0 0.0
2017-Oct-09 20:30N 45°38' E 013°41'0 0.1
2017-Oct-09 19:57N 45°38' E 013°41'0 0.1
2017-Oct-09 19:30N 45°38' E 013°41'0 0.0
2017-Oct-09 19:00N 45°38' E 013°41'0 0.1
2017-Oct-09 18:30N 45°38' E 013°41'  
Track history (hours):
 
Tides and Currents Weather Stations Pressure Air Temp Water Temp Dewpoint Dewpoint Depression Visibility Wind Speed Wind Dir Waves Ship Positions

Carmel

Last reported at 2017-Oct-19 18:04 UTC. Time now 2017-Nov-18 10:18 UTC.
Position N 35°38' E 031°54'.
Warning: this ship's position is 29 days out of date.

Length 244 m; draft 12.5 m.

Type: Ship (hazmat cat A). MMSI: 249583000.

Date/timePositionNaut miles runAvg speedWind from/ knotsBaromVisibWave heightAir tempDewpointWater temp
2017-Oct-19 18:04N 35°38' E 031°54'112.9
2017-Oct-19 18:00N 35°37' E 031°54'2112.9
2017-Oct-19 16:23N 35°35' E 031°28'512.6
2017-Oct-19 15:58N 35°35' E 031°22'612.5
2017-Oct-19 15:30N 35°34' E 031°15'612.5
2017-Oct-19 15:00N 35°33' E 031°07'612.4
2017-Oct-19 14:30N 35°33' E 030°59'612.5
2017-Oct-19 14:00N 35°32' E 030°52'612.5
2017-Oct-19 13:30N 35°31' E 030°44'612.3
2017-Oct-19 13:00N 35°31' E 030°37'1612.2
2017-Oct-19 11:44N 35°29' E 030°17'58412.6
2017-Oct-17 13:20N 34°45' E 018°26'412.5
2017-Oct-17 12:59N 34°44' E 018°21'612.4
2017-Oct-17 12:29N 34°43' E 018°13'612.1
2017-Oct-17 12:00N 34°41' E 018°06'  
2017-Oct-12 13:43N 44°29' E 013°42'415.5
2017-Oct-12 13:27N 44°32' E 013°39'715.5
2017-Oct-12 13:00N 44°38' E 013°33'815.4
2017-Oct-12 12:30N 44°44' E 013°27'815.5
2017-Oct-12 12:00N 44°51' E 013°21'815.4
2017-Oct-12 11:30N 44°57' E 013°15'815.6
2017-Oct-12 11:00N 45°03' E 013°08'815.3
2017-Oct-12 10:30N 45°10' E 013°03'815.4
2017-Oct-12 10:00N 45°17' E 013°00'714.0
2017-Oct-12 09:31N 45°24' E 013°04'815.5
2017-Oct-12 09:00N 45°29' E 013°12'714.5
2017-Oct-12 08:30N 45°34' E 013°20'713.4
2017-Oct-12 08:00N 45°36' E 013°29'612.2
2017-Oct-12 07:30N 45°38' E 013°37'2 5.0
2017-Oct-12 07:00N 45°38' E 013°41'1 1.7
2017-Oct-12 06:31N 45°38' E 013°42'1 1.6
2017-Oct-12 06:00N 45°37' E 013°42'3 6.3
2017-Oct-12 05:30N 45°37' E 013°46'0 0.8
2017-Oct-12 04:59N 45°37' E 013°47'0 0.0
2017-Oct-12 04:29N 45°37' E 013°47'0 0.0
2017-Oct-12 03:59N 45°37' E 013°47'0 0.0
2017-Oct-12 03:29N 45°37' E 013°47'0 0.0
2017-Oct-12 02:53N 45°37' E 013°47'0 0.0
2017-Oct-12 02:29N 45°37' E 013°47'0 0.0
2017-Oct-12 01:59N 45°37' E 013°47'0 0.0
2017-Oct-12 01:29N 45°37' E 013°47'0 0.0
2017-Oct-12 00:59N 45°37' E 013°47'0 0.0
2017-Oct-12 00:29N 45°37' E 013°47'0 0.0
2017-Oct-11 23:59N 45°37' E 013°47'0 0.0
2017-Oct-11 23:29N 45°37' E 013°47'0 0.0
2017-Oct-11 22:56N 45°37' E 013°47'0 0.0
2017-Oct-11 22:26N 45°37' E 013°47'0 0.0
2017-Oct-11 21:35N 45°37' E 013°47'0 0.0
2017-Oct-11 21:11N 45°37' E 013°47'0 0.0
2017-Oct-11 20:59N 45°37' E 013°47'0 0.0
2017-Oct-11 20:23N 45°37' E 013°47'0 0.0
2017-Oct-11 19:53N 45°37' E 013°47'0 0.0
2017-Oct-11 19:29N 45°37' E 013°47'0 0.0
2017-Oct-11 18:53N 45°37' E 013°47'0 0.0
2017-Oct-11 18:14N 45°37' E 013°47'0 0.0
2017-Oct-11 17:56N 45°37' E 013°47'0 0.0
2017-Oct-11 17:29N 45°37' E 013°47'0 0.0
2017-Oct-11 16:58N 45°37' E 013°47'0 0.0
2017-Oct-10 23:49N 45°37' E 013°47'0 0.0
2017-Oct-10 23:19N 45°37' E 013°47'0 0.0
2017-Oct-10 22:49N 45°37' E 013°47'0 0.0
2017-Oct-10 22:25N 45°37' E 013°47'0 0.0
2017-Oct-10 21:58N 45°37' E 013°47'0 0.0
2017-Oct-10 21:28N 45°37' E 013°47'0 0.0
2017-Oct-10 20:58N 45°37' E 013°47'0 0.0
2017-Oct-10 20:25N 45°37' E 013°47'0 0.0
2017-Oct-10 20:00N 45°37' E 013°47'0 0.7
2017-Oct-10 19:30N 45°37' E 013°46'3 5.7
2017-Oct-10 19:00N 45°37' E 013°42'1 1.7
2017-Oct-10 18:30N 45°38' E 013°41'0 0.1
2017-Oct-10 18:00N 45°38' E 013°41'0 0.1
2017-Oct-10 17:30N 45°38' E 013°41'0 0.0
2017-Oct-10 16:57N 45°38' E 013°41'0 0.0
2017-Oct-10 16:30N 45°38' E 013°41'0 0.0
2017-Oct-10 15:57N 45°38' E 013°41'0 0.1
2017-Oct-10 15:30N 45°38' E 013°41'0 0.0
2017-Oct-10 14:57N 45°38' E 013°41'0 0.0
2017-Oct-10 14:00N 45°38' E 013°41'0 0.0
2017-Oct-10 13:27N 45°38' E 013°41'0 0.0
2017-Oct-10 12:57N 45°38' E 013°41'0 0.1
2017-Oct-10 12:30N 45°38' E 013°41'0 0.0
2017-Oct-10 11:54N 45°38' E 013°41'0 0.0
2017-Oct-10 11:30N 45°38' E 013°41'0 0.1
2017-Oct-10 11:00N 45°38' E 013°41'0 0.2
2017-Oct-10 10:27N 45°38' E 013°41'0 0.2
2017-Oct-10 10:00N 45°38' E 013°41'0 0.1
2017-Oct-10 09:18N 45°38' E 013°41'0 0.1
2017-Oct-10 09:00N 45°38' E 013°41'0 0.0
2017-Oct-10 08:27N 45°38' E 013°41'0 0.0
2017-Oct-10 07:57N 45°38' E 013°41'0 0.0
2017-Oct-10 07:30N 45°38' E 013°41'0 0.0
2017-Oct-10 07:00N 45°38' E 013°41'0 0.0
2017-Oct-10 06:21N 45°38' E 013°41'0 0.0
2017-Oct-10 05:57N 45°38' E 013°41'0 0.0
2017-Oct-10 05:24N 45°38' E 013°41'0 0.0
2017-Oct-10 04:54N 45°38' E 013°41'0 0.0
2017-Oct-10 04:30N 45°38' E 013°41'0 0.0
2017-Oct-10 03:57N 45°38' E 013°41'0 0.0
2017-Oct-10 03:30N 45°38' E 013°41'0 0.0
2017-Oct-10 03:00N 45°38' E 013°41'0 0.0
2017-Oct-10 02:30N 45°38' E 013°41'0 0.0
2017-Oct-10 01:51N 45°38' E 013°41'0 0.0
2017-Oct-10 01:30N 45°38' E 013°41'0 0.1
2017-Oct-10 00:57N 45°38' E 013°41'0 0.0
2017-Oct-10 00:30N 45°38' E 013°41'0 0.0
2017-Oct-09 23:51N 45°38' E 013°41'0 0.0
2017-Oct-09 23:30N 45°38' E 013°41'0 0.0
2017-Oct-09 22:54N 45°38' E 013°41'0 0.0
2017-Oct-09 22:21N 45°38' E 013°41'0 0.0
2017-Oct-09 22:00N 45°38' E 013°41'0 0.0
2017-Oct-09 21:30N 45°38' E 013°41'0 0.0
2017-Oct-09 21:00N 45°38' E 013°41'0 0.0
2017-Oct-09 20:30N 45°38' E 013°41'0 0.1
2017-Oct-09 19:57N 45°38' E 013°41'0 0.1
2017-Oct-09 19:30N 45°38' E 013°41'0 0.0
2017-Oct-09 19:00N 45°38' E 013°41'0 0.1
2017-Oct-09 18:30N 45°38' E 013°41'  

Dump ship's entire track history